Latest Weather Observations for Newcastle Nobbys

IDN60901

Issued at 5:51 pm EST Wednesday 24 May 2017 (issued every 10 minutes, with the page automatically refreshed every 10 minutes)

About weather observations | Map of Sydney area stations | Latest observations for Sydney area | Other Formats
Station Details ID: 061055 Name: NEWCASTLE NOBBYS SIGNAL STATION AWS Lat: -32.92 Lon: 151.80 Height: 33.0 m
Data from the previous 72 hours. | See also: Recent months at Newcastle Nobbys
Date/Time
EST
Temp
°C
App
Temp
°C
Dew
Point
°C
Rel
Hum
%
Delta-T
°C
Wind Press
QNH
hPa
Press
MSL
hPa
Rain since
9am
mm
Dir  Spd
km/h
Gust
km/h
Spd
kts
Gust
kts
24/05:30pm 20.1 18.2 9.1 49 5.8 SW 9 13 5 7 - - 0.0
24/05:00pm 21.0 17.3 9.3 47 6.2 W 19 24 10 13 - - 0.0
24/04:30pm 22.4 19.4 10.5 47 6.5 W 17 22 9 12 - - 0.0
24/04:00pm 22.8 20.1 13.0 54 5.6 WNW 19 30 10 16 - - 0.0
24/03:30pm 22.4 19.1 14.0 59 4.9 WNW 24 32 13 17 - - 0.0
24/03:00pm 22.7 19.3 13.7 56 5.2 WNW 24 35 13 19 - - 0.0
24/02:30pm 22.6 18.5 13.9 58 5.1 WNW 28 37 15 20 - - 0.0
24/02:00pm 22.7 18.7 14.0 58 5.1 NW 28 39 15 21 - - 0.0
24/01:30pm 22.9 19.2 13.9 57 5.3 NW 26 35 14 19 - - 0.0
24/01:00pm 22.7 18.9 13.7 56 5.2 WNW 26 35 14 19 - - 0.0
24/12:30pm 22.8 18.8 14.1 58 5.1 NW 28 35 15 19 - - 0.0
24/12:00pm 22.8 19.5 15.1 62 4.6 NW 26 35 14 19 - - 0.0
24/11:30am 21.9 18.9 14.8 64 4.2 WNW 24 35 13 19 - - 0.0
24/11:00am 21.0 18.1 15.1 69 3.5 NW 24 32 13 17 - - 0.0
24/10:30am 20.0 17.9 15.2 74 2.8 NNW 20 32 11 17 - - 0.0
24/10:00am 18.8 18.3 16.0 84 1.7 N 13 15 7 8 - - 0.0
24/09:30am 18.1 17.4 15.4 84 1.6 N 13 17 7 9 - - 0.0
24/09:00am 18.0 18.3 16.0 88 1.2 N 9 11 5 6 - - 1.6
24/08:30am 17.1 17.9 15.8 92 0.8 NNW 6 7 3 4 - - 1.6
24/08:00am 15.8 16.3 15.0 95 0.5 NW 6 9 3 5 - - 1.6
24/07:30am 15.7 16.2 14.9 95 0.5 NW 6 7 3 4 - - 1.6
24/07:00am 15.6 14.8 15.1 97 0.3 WSW 13 17 7 9 - - 1.6
24/06:30am 16.3 14.4 15.7 96 0.4 N 20 24 11 13 - - 1.6
24/06:00am 15.4 16.0 14.3 93 0.6 W 4 7 2 4 - - 0.2
24/05:30am 15.3 13.4 14.3 94 0.6 W 17 30 9 16 - - 0.0
24/05:00am 15.4 14.9 14.9 97 0.3 NNW 11 17 6 9 - - 0.0
24/04:30am 15.5 14.4 15.3 99 0.1 NNW 15 17 8 9 - - 0.0
24/04:00am 15.4 14.7 15.4 100 0.0 N 13 15 7 8 - - 0.0
24/03:30am 15.5 14.8 15.5 100 0.0 NW 13 17 7 9 - - 0.0
24/03:00am 15.2 14.4 15.0 99 0.1 NNW 13 15 7 8 - - 0.0
24/02:30am 15.6 14.4 15.1 97 0.3 N 15 19 8 10 - - 0.0
24/02:00am 16.4 15.4 15.6 95 0.5 NNW 15 19 8 10 - - 0.0
24/01:30am 16.4 16.9 15.6 95 0.5 NNW 7 13 4 7 - - 0.0
24/01:00am 16.3 16.1 15.8 97 0.3 NNW 11 17 6 9 - - 0.0
24/12:30am 16.4 15.5 15.9 97 0.3 NNW 15 17 8 9 - - 0.0
24/12:00am 16.6 17.0 16.4 99 0.1 NNW 9 13 5 7 - - 0.0
 
Date/Time
EST
Temp
°C
App
Temp
°C
Dew
Point
°C
Rel
Hum
%
Delta-T
°C
Wind Press
QNH
hPa
Press
MSL
hPa
Rain since
9am
mm
Dir  Spd
km/h
Gust
km/h
Spd
kts
Gust
kts
23/11:30pm 16.7 16.8 16.5 99 0.1 NNW 11 13 6 7 - - 0.0
23/11:00pm 17.3 18.0 17.0 98 0.2 NNW 9 13 5 7 - - 0.0
23/10:30pm 17.5 18.1 16.7 95 0.5 NW 9 15 5 8 - - 0.0
23/10:00pm 17.9 17.6 17.3 96 0.4 N 15 19 8 10 - - 0.0
23/09:30pm 18.1 17.3 17.1 94 0.6 N 17 20 9 11 - - 0.0
23/09:00pm 18.3 17.8 17.7 96 0.4 NNE 17 22 9 12 - - 0.0
23/08:30pm 18.8 18.4 18.0 95 0.5 NNE 17 20 9 11 - - 0.0
23/08:00pm 19.1 19.5 18.1 94 0.6 NE 13 19 7 10 - - 0.0
23/07:30pm 19.3 19.3 18.1 93 0.7 NNE 15 20 8 11 - - 0.0
23/07:00pm 19.5 19.2 18.2 92 0.8 NNE 17 22 9 12 - - 0.0
23/06:30pm 19.7 19.4 18.2 91 0.9 NNE 17 20 9 11 - - 0.0
23/06:00pm 20.3 20.7 18.1 87 1.4 NE 13 19 7 10 - - 0.0
23/05:30pm 20.6 21.2 17.8 84 1.7 NE 11 13 6 7 - - 0.0
23/05:00pm 20.4 20.7 18.0 86 1.5 NE 13 15 7 8 - - 0.0
23/04:30pm 20.7 21.1 18.1 85 1.6 ENE 13 17 7 9 - - 0.0
23/04:00pm 22.2 22.8 17.8 76 2.7 NE 11 15 6 8 - - 0.0
23/03:30pm 23.0 23.2 16.8 68 3.8 N 11 15 6 8 - - 0.0
23/03:00pm 22.5 22.0 15.8 66 4.0 N 13 17 7 9 - - 0.0
23/02:30pm 23.0 22.9 17.0 69 3.7 N 13 17 7 9 - - 0.0
23/02:00pm 22.4 21.7 16.4 69 3.6 N 15 19 8 10 - - 0.0
23/01:30pm 22.2 22.6 17.3 74 3.0 N 11 17 6 9 - - 0.0
23/01:00pm 21.4 21.1 17.4 78 2.5 NNW 15 20 8 11 - - 0.0
23/12:30pm 20.5 20.5 17.3 82 2.0 NNW 13 20 7 11 - - 0.0
23/12:00pm 19.7 19.0 17.3 86 1.5 NW 17 22 9 12 - - 0.0
23/11:30am 17.9 16.8 17.3 96 0.4 NW 19 26 10 14 - - 0.0
23/11:00am 17.2 15.9 17.2 100 0.0 NNW 20 26 11 14 - - 0.0
23/10:30am 16.7 15.4 16.7 100 0.0 NW 19 24 10 13 - - 0.0
23/10:00am 16.7 15.4 16.7 100 0.0 NW 19 22 10 12 - - 0.0
23/09:30am 15.8 14.1 15.8 100 0.0 NW 19 24 10 13 - - 0.0
23/09:00am 15.7 13.8 15.7 100 0.0 NW 20 26 11 14 - - 0.0
23/08:30am 15.2 13.3 15.2 100 0.0 NW 19 24 10 13 - - 0.0
23/08:00am 14.4 12.1 14.2 99 0.1 NW 19 24 10 13 - - 0.0
23/07:30am 16.3 17.3 16.3 100 0.0 NW 6 7 3 4 - - 0.0
23/07:00am 16.1 16.4 16.1 100 0.0 NNW 9 13 5 7 - - 0.0
23/06:30am 16.5 17.4 16.5 100 0.0 NW 7 9 4 5 - - 0.0
23/06:00am 16.5 17.5 16.3 99 0.1 NW 6 7 3 4 - - 0.0
23/05:30am 16.8 17.3 16.5 98 0.2 NW 9 11 5 6 - - 0.0
23/05:00am 17.5 18.7 16.9 96 0.4 NW 6 7 3 4 - - 0.0
23/04:30am 17.5 18.6 16.7 95 0.5 NW 6 9 3 5 - - 0.0
23/04:00am 17.7 18.8 16.7 94 0.6 NNW 6 9 3 5 - - 0.0
23/03:30am 18.3 20.1 17.3 94 0.6 NW 4 6 2 3 - - 0.0
23/03:00am 18.4 19.9 17.6 95 0.5 NNE 6 9 3 5 - - 0.0
23/02:30am 18.2 20.2 17.0 93 0.7 NNE 2 4 1 2 - - 0.0
23/02:00am 18.1 19.3 16.8 92 0.8 N 6 7 3 4 - - 0.0
23/01:30am 18.4 19.5 16.7 90 1.0 N 6 7 3 4 - - 0.0
23/01:00am 18.8 19.5 16.2 85 1.6 NNE 7 9 4 5 - - 0.0
23/12:30am 19.3 19.9 16.7 85 1.6 NNE 9 13 5 7 - - 0.0
23/12:00am 19.8 19.9 16.6 82 1.9 NE 11 17 6 9 - - 0.0
 
Date/Time
EST
Temp
°C
App
Temp
°C
Dew
Point
°C
Rel
Hum
%
Delta-T
°C
Wind Press
QNH
hPa
Press
MSL
hPa
Rain since
9am
mm
Dir  Spd
km/h
Gust
km/h
Spd
kts
Gust
kts
22/11:30pm 19.6 18.9 16.3 81 2.0 NE 15 20 8 11 - - 0.0
22/11:00pm 20.0 19.8 16.8 82 1.9 NNE 13 17 7 9 - - 0.0
22/10:30pm 20.0 18.7 15.8 77 2.5 ENE 17 20 9 11 - - 0.0
22/10:00pm 20.2 19.4 16.2 78 2.4 ENE 15 20 8 11 - - 0.0
22/09:30pm 20.2 19.2 15.6 75 2.7 ENE 15 22 8 12 - - 0.0
22/09:00pm 20.1 19.0 15.3 74 2.8 ENE 15 19 8 10 - - 0.0
22/08:30pm 20.0 18.5 15.4 75 2.7 E 17 19 9 10 - - 0.0
22/08:00pm 20.1 18.6 15.3 74 2.8 E 17 24 9 13 - - 0.0
22/07:30pm 19.9 17.9 14.9 73 2.9 E 19 24 10 13 - - 0.0
22/07:00pm 20.0 18.1 15.2 74 2.8 E 19 20 10 11 - - 0.0
22/06:30pm 20.0 18.5 15.2 74 2.8 ESE 17 20 9 11 - - 0.0
22/06:00pm 19.8 18.3 15.4 76 2.6 ESE 17 20 9 11 - - 0.0
22/05:30pm 19.9 18.5 15.5 76 2.6 ESE 17 20 9 11 - - 0.0
22/05:00pm 19.9 18.3 15.1 74 2.8 ESE 17 20 9 11 - - 0.0
22/04:30pm 20.4 19.4 15.6 74 2.9 ESE 15 19 8 10 - - 0.0
22/04:00pm 20.5 19.4 15.3 72 3.1 SE 15 19 8 10 - - 0.0
22/03:30pm 20.8 19.3 15.4 71 3.2 SE 17 20 9 11 - - 0.0
22/03:00pm 21.0 19.1 15.1 69 3.5 SE 19 22 10 12 - - 0.0
22/02:30pm 21.2 20.2 15.5 70 3.4 SE 15 19 8 10 - - 0.0
22/02:00pm 21.3 20.3 15.6 70 3.4 SE 15 17 8 9 - - 0.0
22/01:30pm 20.8 20.0 15.1 70 3.4 SE 13 17 7 9 - - 0.0
22/01:00pm 20.1 19.6 17.7 86 1.5 SSW 17 20 9 11 - - 0.0
22/12:30pm 19.8 18.8 17.6 87 1.4 S 19 26 10 14 - - 0.0
22/12:00pm 19.8 19.1 17.4 86 1.5 SSW 17 22 9 12 - - 0.0
22/11:30am 19.9 18.9 17.5 86 1.5 SSW 19 24 10 13 - - 0.0
22/11:00am 20.0 19.4 17.6 86 1.5 SSW 17 20 9 11 - - 0.0
22/10:30am 19.9 19.7 17.5 86 1.5 SSW 15 19 8 10 - - 0.0
22/10:00am 19.6 19.3 17.4 87 1.3 SSW 15 20 8 11 - - 0.0
22/09:30am 19.2 18.7 17.0 87 1.3 SSW 15 20 8 11 - - 0.0
22/09:00am 18.9 19.2 16.9 88 1.2 SSW 11 17 6 9 - - 0.0
22/08:30am 18.8 18.8 17.3 91 0.9 SSW 13 19 7 10 - - 0.0
22/08:00am 17.9 17.9 17.3 96 0.4 SSW 13 17 7 9 - - 0.0
22/07:30am 17.7 18.5 17.2 97 0.3 SW 9 17 5 9 - - 0.0
22/07:00am 17.7 17.7 17.2 97 0.3 SSW 13 19 7 10 - - 0.0
22/06:30am 17.9 18.0 17.4 97 0.3 SSW 13 20 7 11 - - 0.0
22/06:00am 18.0 17.3 17.4 96 0.4 SSW 17 24 9 13 - - 0.0
22/05:30am 17.8 17.6 16.8 94 0.6 SW 13 19 7 10 - - 0.0
22/05:00am 17.8 17.6 16.7 93 0.7 SW 13 19 7 10 - - 0.0
22/04:30am 18.5 19.5 16.8 90 1.0 SW 7 11 4 6 - - 0.0
22/04:00am 19.0 19.5 16.6 86 1.4 SSE 9 13 5 7 - - 0.0
22/03:30am 18.9 18.2 16.3 85 1.6 SSE 15 17 8 9 - - 0.0
22/03:00am 18.6 18.1 16.9 90 1.0 SE 15 19 8 10 - - 0.0
22/02:30am 18.6 18.3 17.3 92 0.8 S 15 22 8 12 - - 0.0
22/02:00am 18.6 19.0 17.3 92 0.8 S 11 13 6 7 - - 0.0
22/01:30am 18.5 18.9 17.3 93 0.7 SSW 11 15 6 8 - - 0.0
22/01:00am 18.3 18.6 17.0 92 0.8 SSW 11 15 6 8 - - 0.0
22/12:30am 18.4 19.5 16.6 89 1.1 WSW 6 9 3 5 - - 0.0
22/12:00am 18.8 19.8 16.9 89 1.1 SSE 7 11 4 6 - - 0.0
 
Date/Time
EST
Temp
°C
App
Temp
°C
Dew
Point
°C
Rel
Hum
%
Delta-T
°C
Wind Press
QNH
hPa
Press
MSL
hPa
Rain since
9am
mm
Dir  Spd
km/h
Gust
km/h
Spd
kts
Gust
kts
21/11:30pm 18.6 18.4 15.8 84 1.7 SSE 11 20 6 11 - - 0.0
21/11:00pm 19.1 19.7 16.9 87 1.3 NE 9 20 5 11 - - 0.0
21/10:30pm 19.9 19.8 16.9 83 1.8 SE 13 17 7 9 - - 0.0
21/10:00pm 19.9 19.1 17.1 84 1.7 SE 17 20 9 11 - - 0.0
21/09:30pm 19.9 19.0 16.9 83 1.8 SE 17 19 9 10 - - 0.0
21/09:00pm 19.9 18.6 16.9 83 1.8 SE 19 20 10 11 - - 0.0
21/08:30pm 20.1 19.0 17.3 84 1.7 SSE 19 22 10 12 - - 0.0
21/08:00pm 20.2 18.9 17.2 83 1.8 SSE 20 24 11 13 - - 0.0
21/07:30pm 20.3 18.9 17.1 82 2.0 SE 20 24 11 13 - - 0.0
21/07:00pm 20.1 18.6 16.7 81 2.1 SE 20 24 11 13 - - 0.0
21/06:30pm 20.1 18.8 16.7 81 2.1 SE 19 22 10 12 - - 0.0
21/06:00pm 20.1 18.7 16.5 80 2.2 SE 19 22 10 12 - - 0.0

Latest Capital City Observations: Canberra | Sydney | Melbourne | Brisbane | Adelaide | Perth | Hobart | Darwin

Other Formats:

Comma delimited format used in spreadsheet applications
http://www.bom.gov.au/fwo/IDN60901/IDN60901.94774.axf

JavaScript Object Notation format (JSON) in row-major order
http://www.bom.gov.au/fwo/IDN60901/IDN60901.94774.json